sensor_id;sensor_type;location;lat;lon;timestamp;temperature;humidity
37844;DHT22;63793;57.632;18.292;2023-07-31T00:00:51;16.70;99.90
37844;DHT22;63793;57.632;18.292;2023-07-31T00:03:18;16.70;99.90
37844;DHT22;63793;57.632;18.292;2023-07-31T00:05:45;16.70;99.90
37844;DHT22;63793;57.632;18.292;2023-07-31T00:08:12;16.70;99.90
37844;DHT22;63793;57.632;18.292;2023-07-31T00:10:39;16.70;99.90
37844;DHT22;63793;57.632;18.292;2023-07-31T00:13:06;16.70;99.90
37844;DHT22;63793;57.632;18.292;2023-07-31T00:15:32;16.70;99.90
37844;DHT22;63793;57.632;18.292;2023-07-31T00:17:59;16.70;99.90
37844;DHT22;63793;57.632;18.292;2023-07-31T00:20:28;16.70;99.90
37844;DHT22;63793;57.632;18.292;2023-07-31T00:22:54;16.70;99.90
37844;DHT22;63793;57.632;18.292;2023-07-31T00:25:21;16.60;99.90
37844;DHT22;63793;57.632;18.292;2023-07-31T00:27:48;16.60;99.90
37844;DHT22;63793;57.632;18.292;2023-07-31T00:30:15;16.60;99.90
37844;DHT22;63793;57.632;18.292;2023-07-31T00:32:42;16.60;99.90
37844;DHT22;63793;57.632;18.292;2023-07-31T00:35:09;16.60;99.90
37844;DHT22;63793;57.632;18.292;2023-07-31T00:37:36;16.60;99.90
37844;DHT22;63793;57.632;18.292;2023-07-31T00:40:03;16.50;99.90
37844;DHT22;63793;57.632;18.292;2023-07-31T00:42:31;16.50;99.90
37844;DHT22;63793;57.632;18.292;2023-07-31T00:44:57;16.50;99.90
37844;DHT22;63793;57.632;18.292;2023-07-31T00:47:24;16.50;99.90
37844;DHT22;63793;57.632;18.292;2023-07-31T00:49:52;16.50;99.90
37844;DHT22;63793;57.632;18.292;2023-07-31T00:52:19;16.50;99.90
37844;DHT22;63793;57.632;18.292;2023-07-31T00:54:48;16.60;99.90
37844;DHT22;63793;57.632;18.292;2023-07-31T00:57:15;16.60;99.90
37844;DHT22;63793;57.632;18.292;2023-07-31T00:59:42;16.60;99.90
37844;DHT22;63793;57.632;18.292;2023-07-31T01:02:09;16.70;99.90
37844;DHT22;63793;57.632;18.292;2023-07-31T01:04:36;16.60;99.90
37844;DHT22;63793;57.632;18.292;2023-07-31T01:09:34;16.70;99.90
37844;DHT22;63793;57.632;18.292;2023-07-31T01:12:04;16.80;99.90
37844;DHT22;63793;57.632;18.292;2023-07-31T01:14:33;16.70;99.90
37844;DHT22;63793;57.632;18.292;2023-07-31T01:17:00;16.70;99.90
37844;DHT22;63793;57.632;18.292;2023-07-31T01:19:28;16.80;99.90
37844;DHT22;63793;57.632;18.292;2023-07-31T01:27:15;16.80;99.90
37844;DHT22;63793;57.632;18.292;2023-07-31T01:29:50;16.80;99.90
37844;DHT22;63793;57.632;18.292;2023-07-31T01:32:19;16.80;99.90
37844;DHT22;63793;57.632;18.292;2023-07-31T01:34:47;16.80;99.90
37844;DHT22;63793;57.632;18.292;2023-07-31T01:37:15;16.80;99.90
37844;DHT22;63793;57.632;18.292;2023-07-31T01:39:42;16.80;99.90
37844;DHT22;63793;57.632;18.292;2023-07-31T01:42:10;16.80;99.90
37844;DHT22;63793;57.632;18.292;2023-07-31T01:44:37;16.80;99.90
37844;DHT22;63793;57.632;18.292;2023-07-31T01:47:04;16.70;99.90
37844;DHT22;63793;57.632;18.292;2023-07-31T01:49:32;16.70;99.90
37844;DHT22;63793;57.632;18.292;2023-07-31T01:52:00;16.70;99.90
37844;DHT22;63793;57.632;18.292;2023-07-31T01:54:26;16.60;99.90
37844;DHT22;63793;57.632;18.292;2023-07-31T01:56:53;16.60;99.90
37844;DHT22;63793;57.632;18.292;2023-07-31T01:59:20;16.50;99.90
37844;DHT22;63793;57.632;18.292;2023-07-31T02:01:47;16.50;99.90
37844;DHT22;63793;57.632;18.292;2023-07-31T02:04:15;16.50;99.90
37844;DHT22;63793;57.632;18.292;2023-07-31T02:06:43;16.50;99.90
37844;DHT22;63793;57.632;18.292;2023-07-31T02:09:10;16.50;99.90
37844;DHT22;63793;57.632;18.292;2023-07-31T02:11:37;16.50;99.90
37844;DHT22;63793;57.632;18.292;2023-07-31T02:14:04;16.50;99.90
37844;DHT22;63793;57.632;18.292;2023-07-31T02:16:30;16.40;99.90
37844;DHT22;63793;57.632;18.292;2023-07-31T02:18:57;16.40;99.90
37844;DHT22;63793;57.632;18.292;2023-07-31T02:21:25;16.30;99.90
37844;DHT22;63793;57.632;18.292;2023-07-31T02:23:52;16.30;99.90
37844;DHT22;63793;57.632;18.292;2023-07-31T02:26:19;16.40;99.90
37844;DHT22;63793;57.632;18.292;2023-07-31T02:28:46;16.40;99.90
37844;DHT22;63793;57.632;18.292;2023-07-31T02:31:12;16.40;99.90
37844;DHT22;63793;57.632;18.292;2023-07-31T02:33:39;16.40;99.90
37844;DHT22;63793;57.632;18.292;2023-07-31T02:36:06;16.40;99.90
37844;DHT22;63793;57.632;18.292;2023-07-31T02:38:33;16.40;99.90
37844;DHT22;63793;57.632;18.292;2023-07-31T02:41:00;16.30;99.90
37844;DHT22;63793;57.632;18.292;2023-07-31T02:43:27;16.30;99.90
37844;DHT22;63793;57.632;18.292;2023-07-31T02:45:54;16.30;99.90
37844;DHT22;63793;57.632;18.292;2023-07-31T02:48:23;16.40;99.90
37844;DHT22;63793;57.632;18.292;2023-07-31T02:50:50;16.30;99.90
37844;DHT22;63793;57.632;18.292;2023-07-31T02:53:17;16.40;99.90
37844;DHT22;63793;57.632;18.292;2023-07-31T02:55:44;16.40;99.90
37844;DHT22;63793;57.632;18.292;2023-07-31T02:58:10;16.40;99.90
37844;DHT22;63793;57.632;18.292;2023-07-31T03:00:42;16.40;99.90
37844;DHT22;63793;57.632;18.292;2023-07-31T03:03:09;16.40;99.90
37844;DHT22;63793;57.632;18.292;2023-07-31T03:05:36;16.50;99.90
37844;DHT22;63793;57.632;18.292;2023-07-31T03:08:04;16.60;99.90
37844;DHT22;63793;57.632;18.292;2023-07-31T03:10:30;16.80;99.90
37844;DHT22;63793;57.632;18.292;2023-07-31T03:12:58;16.80;99.90
37844;DHT22;63793;57.632;18.292;2023-07-31T03:15:24;16.90;99.90
37844;DHT22;63793;57.632;18.292;2023-07-31T03:17:51;16.90;99.90
37844;DHT22;63793;57.632;18.292;2023-07-31T03:20:18;17.00;99.90
37844;DHT22;63793;57.632;18.292;2023-07-31T03:22:46;17.00;99.90
37844;DHT22;63793;57.632;18.292;2023-07-31T03:25:13;17.10;99.90
37844;DHT22;63793;57.632;18.292;2023-07-31T03:27:41;17.00;99.90
37844;DHT22;63793;57.632;18.292;2023-07-31T03:30:08;17.10;99.90
37844;DHT22;63793;57.632;18.292;2023-07-31T03:32:35;17.10;99.90
37844;DHT22;63793;57.632;18.292;2023-07-31T03:35:03;17.10;99.90
37844;DHT22;63793;57.632;18.292;2023-07-31T03:37:32;17.00;99.90
37844;DHT22;63793;57.632;18.292;2023-07-31T03:39:59;17.00;99.90
37844;DHT22;63793;57.632;18.292;2023-07-31T03:42:26;16.90;99.90
37844;DHT22;63793;57.632;18.292;2023-07-31T03:44:53;16.90;99.90
37844;DHT22;63793;57.632;18.292;2023-07-31T03:47:20;16.80;99.90
37844;DHT22;63793;57.632;18.292;2023-07-31T03:49:47;16.80;99.90
37844;DHT22;63793;57.632;18.292;2023-07-31T03:52:14;16.70;99.90
37844;DHT22;63793;57.632;18.292;2023-07-31T03:54:41;16.70;99.90
37844;DHT22;63793;57.632;18.292;2023-07-31T03:57:08;16.70;99.90
37844;DHT22;63793;57.632;18.292;2023-07-31T03:59:35;16.70;99.90
37844;DHT22;63793;57.632;18.292;2023-07-31T04:02:02;16.70;99.90
37844;DHT22;63793;57.632;18.292;2023-07-31T04:04:28;16.60;99.90
37844;DHT22;63793;57.632;18.292;2023-07-31T04:06:55;16.60;99.90
37844;DHT22;63793;57.632;18.292;2023-07-31T04:09:22;16.60;99.90
37844;DHT22;63793;57.632;18.292;2023-07-31T04:11:49;16.60;99.90
37844;DHT22;63793;57.632;18.292;2023-07-31T04:14:17;16.60;99.90
37844;DHT22;63793;57.632;18.292;2023-07-31T04:16:43;16.50;99.90
37844;DHT22;63793;57.632;18.292;2023-07-31T04:19:10;16.60;99.90
37844;DHT22;63793;57.632;18.292;2023-07-31T04:21:37;16.60;99.90
37844;DHT22;63793;57.632;18.292;2023-07-31T04:24:04;16.50;99.90
37844;DHT22;63793;57.632;18.292;2023-07-31T04:26:31;16.50;99.90
37844;DHT22;63793;57.632;18.292;2023-07-31T04:28:58;16.40;99.90
37844;DHT22;63793;57.632;18.292;2023-07-31T04:31:24;16.40;99.90
37844;DHT22;63793;57.632;18.292;2023-07-31T04:33:51;16.30;99.90
37844;DHT22;63793;57.632;18.292;2023-07-31T04:36:18;16.20;99.90
37844;DHT22;63793;57.632;18.292;2023-07-31T04:38:45;16.20;99.90
37844;DHT22;63793;57.632;18.292;2023-07-31T04:41:12;16.10;99.90
37844;DHT22;63793;57.632;18.292;2023-07-31T04:43:39;16.10;99.90
37844;DHT22;63793;57.632;18.292;2023-07-31T04:46:06;16.00;99.90
37844;DHT22;63793;57.632;18.292;2023-07-31T04:48:33;16.00;99.90
37844;DHT22;63793;57.632;18.292;2023-07-31T04:51:00;16.00;99.90
37844;DHT22;63793;57.632;18.292;2023-07-31T04:53:27;15.90;99.90
37844;DHT22;63793;57.632;18.292;2023-07-31T04:55:54;15.90;99.90
37844;DHT22;63793;57.632;18.292;2023-07-31T04:58:21;15.80;99.90
37844;DHT22;63793;57.632;18.292;2023-07-31T05:00:48;15.80;99.90
37844;DHT22;63793;57.632;18.292;2023-07-31T05:03:15;15.80;99.90
37844;DHT22;63793;57.632;18.292;2023-07-31T05:05:41;15.80;99.90
37844;DHT22;63793;57.632;18.292;2023-07-31T05:08:08;15.80;99.90
37844;DHT22;63793;57.632;18.292;2023-07-31T05:10:35;15.80;99.90
37844;DHT22;63793;57.632;18.292;2023-07-31T05:13:02;15.80;99.90
37844;DHT22;63793;57.632;18.292;2023-07-31T05:15:29;15.80;99.90
37844;DHT22;63793;57.632;18.292;2023-07-31T05:17:56;15.70;99.90
37844;DHT22;63793;57.632;18.292;2023-07-31T05:20:23;15.70;99.90
37844;DHT22;63793;57.632;18.292;2023-07-31T05:22:51;15.70;99.90
37844;DHT22;63793;57.632;18.292;2023-07-31T05:25:18;15.60;99.90
37844;DHT22;63793;57.632;18.292;2023-07-31T05:27:45;15.60;99.90
37844;DHT22;63793;57.632;18.292;2023-07-31T05:30:11;15.60;99.90
37844;DHT22;63793;57.632;18.292;2023-07-31T05:32:38;15.50;99.90
37844;DHT22;63793;57.632;18.292;2023-07-31T05:35:05;15.50;99.90
37844;DHT22;63793;57.632;18.292;2023-07-31T05:37:32;15.50;99.90
37844;DHT22;63793;57.632;18.292;2023-07-31T05:39:59;15.50;99.90
37844;DHT22;63793;57.632;18.292;2023-07-31T05:42:26;15.50;99.90
37844;DHT22;63793;57.632;18.292;2023-07-31T05:44:54;15.40;99.90
37844;DHT22;63793;57.632;18.292;2023-07-31T05:47:20;15.40;99.90
37844;DHT22;63793;57.632;18.292;2023-07-31T05:49:48;15.40;99.90
37844;DHT22;63793;57.632;18.292;2023-07-31T05:52:16;15.40;99.90
37844;DHT22;63793;57.632;18.292;2023-07-31T05:54:43;15.30;99.90
37844;DHT22;63793;57.632;18.292;2023-07-31T05:57:10;15.30;99.90
37844;DHT22;63793;57.632;18.292;2023-07-31T05:59:37;15.20;99.90
37844;DHT22;63793;57.632;18.292;2023-07-31T06:02:04;15.20;99.90
37844;DHT22;63793;57.632;18.292;2023-07-31T06:04:31;15.10;99.90
37844;DHT22;63793;57.632;18.292;2023-07-31T06:06:58;15.10;99.90
37844;DHT22;63793;57.632;18.292;2023-07-31T06:09:25;15.10;99.90
37844;DHT22;63793;57.632;18.292;2023-07-31T06:11:52;15.10;99.90
37844;DHT22;63793;57.632;18.292;2023-07-31T06:14:19;15.10;99.90
37844;DHT22;63793;57.632;18.292;2023-07-31T06:16:46;15.10;99.90
37844;DHT22;63793;57.632;18.292;2023-07-31T06:19:13;15.10;99.90
37844;DHT22;63793;57.632;18.292;2023-07-31T06:21:40;15.00;99.90
37844;DHT22;63793;57.632;18.292;2023-07-31T06:24:09;15.00;99.90
37844;DHT22;63793;57.632;18.292;2023-07-31T06:26:36;15.10;99.90
37844;DHT22;63793;57.632;18.292;2023-07-31T06:29:03;15.00;99.90
37844;DHT22;63793;57.632;18.292;2023-07-31T06:31:30;15.10;99.90
37844;DHT22;63793;57.632;18.292;2023-07-31T06:33:57;15.10;99.90
37844;DHT22;63793;57.632;18.292;2023-07-31T06:36:24;15.10;99.90
37844;DHT22;63793;57.632;18.292;2023-07-31T06:38:51;15.10;99.90
37844;DHT22;63793;57.632;18.292;2023-07-31T06:41:18;15.20;99.90
37844;DHT22;63793;57.632;18.292;2023-07-31T06:43:45;15.30;99.90
37844;DHT22;63793;57.632;18.292;2023-07-31T06:46:12;15.40;99.90
37844;DHT22;63793;57.632;18.292;2023-07-31T06:48:40;15.40;99.90
37844;DHT22;63793;57.632;18.292;2023-07-31T06:51:07;15.50;99.90
37844;DHT22;63793;57.632;18.292;2023-07-31T06:53:34;15.50;99.90
37844;DHT22;63793;57.632;18.292;2023-07-31T06:56:00;15.60;99.90
37844;DHT22;63793;57.632;18.292;2023-07-31T06:58:27;15.70;99.90
37844;DHT22;63793;57.632;18.292;2023-07-31T07:00:54;15.80;99.90
37844;DHT22;63793;57.632;18.292;2023-07-31T07:03:21;15.80;99.90
37844;DHT22;63793;57.632;18.292;2023-07-31T07:05:48;15.90;99.90
37844;DHT22;63793;57.632;18.292;2023-07-31T07:08:15;16.00;99.90
37844;DHT22;63793;57.632;18.292;2023-07-31T07:10:43;16.20;99.90
37844;DHT22;63793;57.632;18.292;2023-07-31T07:13:10;16.40;99.90
37844;DHT22;63793;57.632;18.292;2023-07-31T07:15:39;16.50;99.90
37844;DHT22;63793;57.632;18.292;2023-07-31T07:18:06;16.70;99.90
37844;DHT22;63793;57.632;18.292;2023-07-31T07:20:34;16.90;99.90
37844;DHT22;63793;57.632;18.292;2023-07-31T07:23:01;17.00;99.90
37844;DHT22;63793;57.632;18.292;2023-07-31T07:25:27;17.10;99.90
37844;DHT22;63793;57.632;18.292;2023-07-31T07:27:54;17.10;99.90
37844;DHT22;63793;57.632;18.292;2023-07-31T07:30:21;17.10;99.90
37844;DHT22;63793;57.632;18.292;2023-07-31T07:32:49;17.10;99.90
37844;DHT22;63793;57.632;18.292;2023-07-31T07:35:16;17.10;99.90
37844;DHT22;63793;57.632;18.292;2023-07-31T07:37:43;17.10;99.90
37844;DHT22;63793;57.632;18.292;2023-07-31T07:40:10;17.00;99.90
37844;DHT22;63793;57.632;18.292;2023-07-31T07:42:37;17.00;99.90
37844;DHT22;63793;57.632;18.292;2023-07-31T07:45:04;17.10;99.90
37844;DHT22;63793;57.632;18.292;2023-07-31T07:47:31;17.20;99.90
37844;DHT22;63793;57.632;18.292;2023-07-31T07:49:58;17.10;99.90
37844;DHT22;63793;57.632;18.292;2023-07-31T07:52:25;17.10;99.90
37844;DHT22;63793;57.632;18.292;2023-07-31T07:54:52;17.10;99.90
37844;DHT22;63793;57.632;18.292;2023-07-31T07:57:18;17.10;99.90
37844;DHT22;63793;57.632;18.292;2023-07-31T07:59:45;17.20;99.90
37844;DHT22;63793;57.632;18.292;2023-07-31T08:02:12;17.30;99.90
37844;DHT22;63793;57.632;18.292;2023-07-31T08:04:39;17.30;99.90
37844;DHT22;63793;57.632;18.292;2023-07-31T08:07:06;17.40;99.90
37844;DHT22;63793;57.632;18.292;2023-07-31T08:09:33;17.30;99.90
37844;DHT22;63793;57.632;18.292;2023-07-31T08:12:00;17.20;99.90
37844;DHT22;63793;57.632;18.292;2023-07-31T08:14:30;17.20;99.90
37844;DHT22;63793;57.632;18.292;2023-07-31T08:16:59;17.20;99.90
37844;DHT22;63793;57.632;18.292;2023-07-31T08:19:26;17.20;99.90
37844;DHT22;63793;57.632;18.292;2023-07-31T08:21:53;17.30;99.90
37844;DHT22;63793;57.632;18.292;2023-07-31T08:24:24;17.40;99.90
37844;DHT22;63793;57.632;18.292;2023-07-31T08:26:50;17.40;99.90
37844;DHT22;63793;57.632;18.292;2023-07-31T08:29:17;17.40;99.90
37844;DHT22;63793;57.632;18.292;2023-07-31T08:31:44;17.40;99.90
37844;DHT22;63793;57.632;18.292;2023-07-31T08:34:11;17.40;99.90
37844;DHT22;63793;57.632;18.292;2023-07-31T08:36:38;17.40;99.90
37844;DHT22;63793;57.632;18.292;2023-07-31T08:39:05;17.50;99.90
37844;DHT22;63793;57.632;18.292;2023-07-31T08:41:38;17.70;99.90
37844;DHT22;63793;57.632;18.292;2023-07-31T08:44:07;17.70;99.90
37844;DHT22;63793;57.632;18.292;2023-07-31T08:46:34;17.60;99.90
37844;DHT22;63793;57.632;18.292;2023-07-31T08:49:04;17.60;99.90
37844;DHT22;63793;57.632;18.292;2023-07-31T08:51:34;17.60;99.90
37844;DHT22;63793;57.632;18.292;2023-07-31T08:54:02;17.60;99.90
37844;DHT22;63793;57.632;18.292;2023-07-31T08:56:32;17.50;99.90
37844;DHT22;63793;57.632;18.292;2023-07-31T08:59:02;17.40;99.90
37844;DHT22;63793;57.632;18.292;2023-07-31T09:01:30;17.40;99.90
37844;DHT22;63793;57.632;18.292;2023-07-31T09:04:01;17.40;99.90
37844;DHT22;63793;57.632;18.292;2023-07-31T09:06:29;17.30;99.90
37844;DHT22;63793;57.632;18.292;2023-07-31T09:08:56;17.30;99.90
37844;DHT22;63793;57.632;18.292;2023-07-31T09:11:24;17.40;99.90
37844;DHT22;63793;57.632;18.292;2023-07-31T09:13:52;17.50;99.90
37844;DHT22;63793;57.632;18.292;2023-07-31T09:16:30;17.60;99.90
37844;DHT22;63793;57.632;18.292;2023-07-31T09:19:00;17.70;99.90
37844;DHT22;63793;57.632;18.292;2023-07-31T09:21:29;17.90;99.90
37844;DHT22;63793;57.632;18.292;2023-07-31T09:23:57;18.00;99.90
37844;DHT22;63793;57.632;18.292;2023-07-31T09:26:33;18.20;99.90
37844;DHT22;63793;57.632;18.292;2023-07-31T09:29:03;18.20;99.90
37844;DHT22;63793;57.632;18.292;2023-07-31T09:31:42;18.10;99.90
37844;DHT22;63793;57.632;18.292;2023-07-31T09:34:10;18.20;99.90
37844;DHT22;63793;57.632;18.292;2023-07-31T09:36:45;18.00;99.90
37844;DHT22;63793;57.632;18.292;2023-07-31T09:39:13;18.00;99.90
37844;DHT22;63793;57.632;18.292;2023-07-31T09:41:43;18.10;99.90
37844;DHT22;63793;57.632;18.292;2023-07-31T09:44:10;18.10;99.90
37844;DHT22;63793;57.632;18.292;2023-07-31T09:46:38;18.30;99.90
37844;DHT22;63793;57.632;18.292;2023-07-31T09:49:06;18.50;99.90
37844;DHT22;63793;57.632;18.292;2023-07-31T09:51:33;18.60;99.90
37844;DHT22;63793;57.632;18.292;2023-07-31T09:54:15;18.50;99.90
37844;DHT22;63793;57.632;18.292;2023-07-31T09:56:44;18.40;99.90
37844;DHT22;63793;57.632;18.292;2023-07-31T09:59:16;18.30;99.90
37844;DHT22;63793;57.632;18.292;2023-07-31T10:01:46;18.50;99.90
37844;DHT22;63793;57.632;18.292;2023-07-31T10:04:14;18.80;99.90
37844;DHT22;63793;57.632;18.292;2023-07-31T10:06:42;18.80;99.90
37844;DHT22;63793;57.632;18.292;2023-07-31T10:09:11;18.90;99.90
37844;DHT22;63793;57.632;18.292;2023-07-31T10:11:46;18.90;99.90
37844;DHT22;63793;57.632;18.292;2023-07-31T10:14:20;19.00;99.90
37844;DHT22;63793;57.632;18.292;2023-07-31T10:16:49;19.10;99.90
37844;DHT22;63793;57.632;18.292;2023-07-31T10:19:17;19.30;99.90
37844;DHT22;63793;57.632;18.292;2023-07-31T10:21:45;19.60;99.90
37844;DHT22;63793;57.632;18.292;2023-07-31T10:24:13;19.70;99.90
37844;DHT22;63793;57.632;18.292;2023-07-31T10:26:41;19.80;99.90
37844;DHT22;63793;57.632;18.292;2023-07-31T10:29:12;19.80;99.90
37844;DHT22;63793;57.632;18.292;2023-07-31T10:31:40;20.00;99.90
37844;DHT22;63793;57.632;18.292;2023-07-31T10:34:07;20.10;99.90
37844;DHT22;63793;57.632;18.292;2023-07-31T10:36:34;20.00;99.90
37844;DHT22;63793;57.632;18.292;2023-07-31T10:39:04;20.00;99.90
37844;DHT22;63793;57.632;18.292;2023-07-31T10:41:31;19.90;99.90
37844;DHT22;63793;57.632;18.292;2023-07-31T10:43:59;20.00;99.90
37844;DHT22;63793;57.632;18.292;2023-07-31T10:46:29;19.90;99.90
37844;DHT22;63793;57.632;18.292;2023-07-31T10:49:01;19.90;99.90
37844;DHT22;63793;57.632;18.292;2023-07-31T10:51:35;19.80;99.90
37844;DHT22;63793;57.632;18.292;2023-07-31T10:54:13;20.00;99.90
37844;DHT22;63793;57.632;18.292;2023-07-31T10:56:45;20.10;99.90
37844;DHT22;63793;57.632;18.292;2023-07-31T10:59:13;20.30;99.90
37844;DHT22;63793;57.632;18.292;2023-07-31T11:01:51;20.40;99.90
37844;DHT22;63793;57.632;18.292;2023-07-31T11:04:23;20.60;99.90
37844;DHT22;63793;57.632;18.292;2023-07-31T11:06:59;20.70;99.90
37844;DHT22;63793;57.632;18.292;2023-07-31T11:09:30;20.50;99.90
37844;DHT22;63793;57.632;18.292;2023-07-31T11:11:59;20.50;99.90
37844;DHT22;63793;57.632;18.292;2023-07-31T11:14:26;20.60;99.90
37844;DHT22;63793;57.632;18.292;2023-07-31T11:16:53;20.50;99.90
37844;DHT22;63793;57.632;18.292;2023-07-31T11:19:24;20.50;99.90
37844;DHT22;63793;57.632;18.292;2023-07-31T11:21:52;20.70;99.90
37844;DHT22;63793;57.632;18.292;2023-07-31T11:24:20;20.70;99.90
37844;DHT22;63793;57.632;18.292;2023-07-31T11:26:51;20.70;99.90
37844;DHT22;63793;57.632;18.292;2023-07-31T11:29:21;20.60;99.90
37844;DHT22;63793;57.632;18.292;2023-07-31T11:31:53;20.80;99.90
37844;DHT22;63793;57.632;18.292;2023-07-31T11:34:20;20.70;99.90
37844;DHT22;63793;57.632;18.292;2023-07-31T11:36:54;20.70;99.90
37844;DHT22;63793;57.632;18.292;2023-07-31T11:39:22;20.50;99.90
37844;DHT22;63793;57.632;18.292;2023-07-31T11:41:49;20.60;99.90
37844;DHT22;63793;57.632;18.292;2023-07-31T11:44:15;20.70;99.90
37844;DHT22;63793;57.632;18.292;2023-07-31T11:46:56;20.70;99.90
37844;DHT22;63793;57.632;18.292;2023-07-31T11:49:24;20.70;99.90
37844;DHT22;63793;57.632;18.292;2023-07-31T11:51:51;21.00;99.90
37844;DHT22;63793;57.632;18.292;2023-07-31T11:54:18;21.00;99.90
37844;DHT22;63793;57.632;18.292;2023-07-31T11:56:44;21.00;99.90
37844;DHT22;63793;57.632;18.292;2023-07-31T11:59:12;21.20;99.90
37844;DHT22;63793;57.632;18.292;2023-07-31T12:01:39;21.20;99.90
37844;DHT22;63793;57.632;18.292;2023-07-31T12:04:06;21.30;99.90
37844;DHT22;63793;57.632;18.292;2023-07-31T12:06:37;21.00;99.90
37844;DHT22;63793;57.632;18.292;2023-07-31T12:09:05;20.90;99.90
37844;DHT22;63793;57.632;18.292;2023-07-31T12:11:43;21.00;99.90
37844;DHT22;63793;57.632;18.292;2023-07-31T12:14:26;21.00;99.90
37844;DHT22;63793;57.632;18.292;2023-07-31T12:16:56;21.00;99.90
37844;DHT22;63793;57.632;18.292;2023-07-31T12:19:25;21.00;99.90
37844;DHT22;63793;57.632;18.292;2023-07-31T12:21:57;21.00;99.90
37844;DHT22;63793;57.632;18.292;2023-07-31T12:24:26;21.10;99.90
37844;DHT22;63793;57.632;18.292;2023-07-31T12:26:53;21.00;99.90
37844;DHT22;63793;57.632;18.292;2023-07-31T12:29:21;21.00;99.90
37844;DHT22;63793;57.632;18.292;2023-07-31T12:31:48;21.00;99.90
37844;DHT22;63793;57.632;18.292;2023-07-31T12:34:20;21.10;99.90
37844;DHT22;63793;57.632;18.292;2023-07-31T12:36:50;21.00;99.90
37844;DHT22;63793;57.632;18.292;2023-07-31T12:39:18;21.20;99.90
37844;DHT22;63793;57.632;18.292;2023-07-31T12:41:45;21.20;99.90
37844;DHT22;63793;57.632;18.292;2023-07-31T12:44:12;21.30;99.90
37844;DHT22;63793;57.632;18.292;2023-07-31T12:46:39;21.30;99.90
37844;DHT22;63793;57.632;18.292;2023-07-31T12:49:07;21.50;99.90
37844;DHT22;63793;57.632;18.292;2023-07-31T12:51:34;21.40;99.90
37844;DHT22;63793;57.632;18.292;2023-07-31T12:54:00;21.50;99.90
37844;DHT22;63793;57.632;18.292;2023-07-31T12:56:27;21.50;99.90
37844;DHT22;63793;57.632;18.292;2023-07-31T12:58:54;21.60;99.90
37844;DHT22;63793;57.632;18.292;2023-07-31T13:01:21;21.80;99.90
37844;DHT22;63793;57.632;18.292;2023-07-31T13:03:49;21.90;99.90
37844;DHT22;63793;57.632;18.292;2023-07-31T13:06:16;22.00;99.90
37844;DHT22;63793;57.632;18.292;2023-07-31T13:08:43;21.90;99.90
37844;DHT22;63793;57.632;18.292;2023-07-31T13:11:09;21.90;99.90
37844;DHT22;63793;57.632;18.292;2023-07-31T13:13:36;22.00;99.90
37844;DHT22;63793;57.632;18.292;2023-07-31T13:16:03;22.00;99.90
37844;DHT22;63793;57.632;18.292;2023-07-31T13:18:32;22.10;99.90
37844;DHT22;63793;57.632;18.292;2023-07-31T13:20:59;22.10;99.90
37844;DHT22;63793;57.632;18.292;2023-07-31T13:23:26;22.10;99.90
37844;DHT22;63793;57.632;18.292;2023-07-31T13:25:53;22.10;99.90
37844;DHT22;63793;57.632;18.292;2023-07-31T13:28:20;22.40;99.90
37844;DHT22;63793;57.632;18.292;2023-07-31T13:30:47;22.40;99.90
37844;DHT22;63793;57.632;18.292;2023-07-31T13:33:14;22.30;99.90
37844;DHT22;63793;57.632;18.292;2023-07-31T13:36:01;22.10;99.90
37844;DHT22;63793;57.632;18.292;2023-07-31T13:38:28;22.00;99.90
37844;DHT22;63793;57.632;18.292;2023-07-31T13:40:54;22.10;99.90
37844;DHT22;63793;57.632;18.292;2023-07-31T13:43:23;21.80;99.90
37844;DHT22;63793;57.632;18.292;2023-07-31T13:45:50;21.80;99.90
37844;DHT22;63793;57.632;18.292;2023-07-31T13:48:17;21.70;99.90
37844;DHT22;63793;57.632;18.292;2023-07-31T13:50:44;21.80;99.90
37844;DHT22;63793;57.632;18.292;2023-07-31T13:53:11;21.80;99.90
37844;DHT22;63793;57.632;18.292;2023-07-31T13:55:38;22.00;99.90
37844;DHT22;63793;57.632;18.292;2023-07-31T13:58:05;21.90;99.90
37844;DHT22;63793;57.632;18.292;2023-07-31T14:00:32;21.90;99.90
37844;DHT22;63793;57.632;18.292;2023-07-31T14:02:59;21.80;99.90
37844;DHT22;63793;57.632;18.292;2023-07-31T14:05:25;21.80;99.90
37844;DHT22;63793;57.632;18.292;2023-07-31T14:07:52;21.90;99.90
37844;DHT22;63793;57.632;18.292;2023-07-31T14:10:20;21.90;99.90
37844;DHT22;63793;57.632;18.292;2023-07-31T14:12:47;22.10;99.90
37844;DHT22;63793;57.632;18.292;2023-07-31T14:15:14;22.20;99.90
37844;DHT22;63793;57.632;18.292;2023-07-31T14:17:41;22.40;99.90
37844;DHT22;63793;57.632;18.292;2023-07-31T14:20:09;22.10;99.90
37844;DHT22;63793;57.632;18.292;2023-07-31T14:22:37;22.40;99.90
37844;DHT22;63793;57.632;18.292;2023-07-31T14:25:04;22.30;99.90
37844;DHT22;63793;57.632;18.292;2023-07-31T14:27:31;22.20;99.90
37844;DHT22;63793;57.632;18.292;2023-07-31T14:29:58;22.30;99.90
37844;DHT22;63793;57.632;18.292;2023-07-31T14:32:25;22.50;99.90
37844;DHT22;63793;57.632;18.292;2023-07-31T14:34:52;22.30;99.90
37844;DHT22;63793;57.632;18.292;2023-07-31T14:37:21;22.30;99.90
37844;DHT22;63793;57.632;18.292;2023-07-31T14:39:48;22.10;99.90
37844;DHT22;63793;57.632;18.292;2023-07-31T14:42:14;21.80;99.90
37844;DHT22;63793;57.632;18.292;2023-07-31T14:44:43;21.50;99.90
37844;DHT22;63793;57.632;18.292;2023-07-31T14:47:10;21.40;99.90
37844;DHT22;63793;57.632;18.292;2023-07-31T14:49:36;21.50;99.90
37844;DHT22;63793;57.632;18.292;2023-07-31T14:52:04;21.40;99.90
37844;DHT22;63793;57.632;18.292;2023-07-31T14:54:30;21.40;99.90
37844;DHT22;63793;57.632;18.292;2023-07-31T14:56:57;21.40;99.90
37844;DHT22;63793;57.632;18.292;2023-07-31T14:59:24;21.30;99.90
37844;DHT22;63793;57.632;18.292;2023-07-31T15:01:51;21.20;99.90
37844;DHT22;63793;57.632;18.292;2023-07-31T15:04:18;21.10;99.90
37844;DHT22;63793;57.632;18.292;2023-07-31T15:06:45;20.90;99.90
37844;DHT22;63793;57.632;18.292;2023-07-31T15:09:12;20.80;99.90
37844;DHT22;63793;57.632;18.292;2023-07-31T15:11:39;20.70;99.90
37844;DHT22;63793;57.632;18.292;2023-07-31T15:14:06;20.80;99.90
37844;DHT22;63793;57.632;18.292;2023-07-31T15:16:33;20.70;99.90
37844;DHT22;63793;57.632;18.292;2023-07-31T15:19:01;20.70;99.90
37844;DHT22;63793;57.632;18.292;2023-07-31T15:21:28;20.60;99.90
37844;DHT22;63793;57.632;18.292;2023-07-31T15:23:55;20.50;99.90
37844;DHT22;63793;57.632;18.292;2023-07-31T15:26:22;20.20;99.90